createdAt,value
2018-12-14T00:02:27.437Z,27.20
2018-12-14T00:04:57.219Z,25.37
2018-12-14T00:07:28.404Z,26.20
2018-12-14T00:09:58.163Z,24.60
2018-12-14T00:12:28.678Z,24.90
2018-12-14T00:15:00.172Z,23.43
2018-12-14T00:17:33.069Z,23.60
2018-12-14T00:20:06.322Z,24.50
2018-12-14T00:22:37.320Z,24.47
2018-12-14T00:25:07.904Z,23.00
2018-12-14T00:27:38.280Z,22.73
2018-12-14T00:30:09.882Z,23.57
2018-12-14T00:32:42.340Z,23.30
2018-12-14T00:35:13.987Z,21.40
2018-12-14T00:37:43.770Z,22.77
2018-12-14T00:40:14.224Z,24.30
2018-12-14T00:42:45.138Z,24.30
2018-12-14T00:45:15.990Z,23.53
2018-12-14T00:47:46.828Z,22.90
2018-12-14T00:50:17.554Z,22.87
2018-12-14T00:52:48.136Z,23.40
2018-12-14T00:55:19.688Z,21.73
2018-12-14T00:57:49.495Z,22.97
2018-12-14T01:00:20.306Z,21.17
2018-12-14T01:02:51.226Z,21.63
2018-12-14T01:05:21.438Z,20.63
2018-12-14T01:07:51.973Z,21.10
2018-12-14T01:10:22.462Z,21.83
2018-12-14T01:12:52.651Z,21.63
2018-12-14T01:15:24.313Z,19.03
2018-12-14T01:17:54.256Z,20.50
2018-12-14T01:20:24.636Z,21.03
2018-12-14T01:22:55.484Z,22.00
2018-12-14T01:25:26.192Z,19.90
2018-12-14T01:27:56.702Z,20.63
2018-12-14T01:30:27.283Z,22.07
2018-12-14T01:32:57.974Z,19.63
2018-12-14T01:35:28.521Z,19.10
2018-12-14T01:37:59.258Z,17.87
2018-12-14T01:40:29.982Z,18.40
2018-12-14T01:43:00.571Z,17.33
2018-12-14T01:45:30.656Z,18.97
2018-12-14T01:48:01.573Z,19.90
2018-12-14T01:50:32.817Z,18.17
2018-12-14T01:53:03.686Z,19.70
2018-12-14T01:55:34.231Z,18.70
2018-12-14T01:58:04.771Z,18.23
2018-12-14T02:00:40.271Z,19.70
2018-12-14T02:03:13.870Z,19.50
2018-12-14T02:05:43.715Z,19.40
2018-12-14T02:08:13.809Z,19.80
2018-12-14T02:10:44.640Z,20.57
2018-12-14T02:13:15.548Z,19.43
2018-12-14T02:15:46.203Z,18.43
2018-12-14T02:18:17.165Z,19.10
2018-12-14T02:20:49.730Z,20.03
2018-12-14T02:23:21.044Z,19.27
2018-12-14T02:25:52.824Z,20.47
2018-12-14T02:28:25.604Z,18.90
2018-12-14T02:30:55.609Z,19.83
2018-12-14T02:33:30.218Z,21.10
2018-12-14T02:36:03.100Z,20.10
2018-12-14T02:38:33.112Z,17.83
2018-12-14T02:41:04.020Z,18.53
2018-12-14T02:43:35.393Z,18.50
2018-12-14T02:46:05.175Z,18.73
2018-12-14T02:48:35.921Z,19.80
2018-12-14T02:51:07.146Z,18.73
2018-12-14T02:53:38.056Z,19.53
2018-12-14T02:56:07.890Z,20.30
2018-12-14T02:58:42.606Z,21.70
2018-12-14T03:01:13.208Z,20.40
2018-12-14T03:03:43.673Z,20.53
2018-12-14T03:06:14.095Z,21.37
2018-12-14T03:08:45.315Z,20.93
2018-12-14T03:11:16.176Z,20.13
2018-12-14T03:13:46.809Z,21.57
2018-12-14T03:16:17.311Z,20.70
2018-12-14T03:18:49.072Z,21.67
2018-12-14T03:21:21.662Z,21.53
2018-12-14T03:23:54.322Z,21.40
2018-12-14T03:26:25.080Z,20.60
2018-12-14T03:28:55.023Z,22.17
2018-12-14T03:31:26.951Z,22.30
2018-12-14T03:33:58.528Z,23.20
2018-12-14T03:36:29.061Z,21.10
2018-12-14T03:39:01.247Z,20.10
2018-12-14T03:41:32.092Z,22.23
2018-12-14T03:44:02.452Z,20.30
2018-12-14T03:46:33.249Z,20.60
2018-12-14T03:49:04.275Z,21.13
2018-12-14T03:51:34.160Z,22.13
2018-12-14T03:54:05.281Z,21.87
2018-12-14T03:56:36.097Z,20.13
2018-12-14T03:59:06.119Z,19.53
2018-12-14T04:01:37.369Z,20.60
2018-12-14T04:04:08.198Z,18.90
2018-12-14T04:06:39.431Z,19.50
2018-12-14T04:09:10.335Z,20.67
2018-12-14T04:11:41.148Z,21.80
2018-12-14T04:14:11.240Z,22.03
2018-12-14T04:16:42.519Z,20.40
2018-12-14T04:19:13.300Z,19.17
2018-12-14T04:21:44.501Z,22.73
2018-12-14T04:24:14.331Z,21.77
2018-12-14T04:26:45.092Z,23.10
2018-12-14T04:29:15.299Z,22.13
2018-12-14T04:31:46.347Z,23.30
2018-12-14T04:34:16.231Z,22.70
2018-12-14T04:36:45.897Z,23.07
2018-12-14T04:39:17.933Z,24.33
2018-12-14T04:41:48.687Z,25.40
2018-12-14T04:44:19.650Z,25.23
2018-12-14T04:46:49.458Z,28.00
2018-12-14T04:49:21.152Z,24.43
2018-12-14T04:51:51.157Z,25.30
2018-12-14T04:54:21.939Z,25.87
2018-12-14T04:56:52.712Z,25.50
2018-12-14T04:59:23.236Z,25.13
2018-12-14T05:01:53.998Z,25.07
2018-12-14T05:04:24.441Z,25.67
2018-12-14T05:06:56.112Z,27.10
2018-12-14T05:09:26.415Z,26.80
2018-12-14T05:11:57.928Z,24.93
2018-12-14T05:14:28.194Z,27.30
2018-12-14T05:17:00.129Z,27.00
2018-12-14T05:19:29.766Z,25.50
2018-12-14T05:22:01.191Z,27.10
2018-12-14T05:24:31.808Z,27.00
2018-12-14T05:27:01.859Z,27.80
2018-12-14T05:29:33.276Z,26.07
2018-12-14T05:32:03.648Z,27.60
2018-12-14T05:34:33.567Z,28.23
2018-12-14T05:37:04.866Z,25.57
2018-12-14T05:39:36.137Z,26.30
2018-12-14T05:42:05.916Z,26.30
2018-12-14T05:44:36.767Z,25.80
2018-12-14T05:47:07.295Z,26.27
2018-12-14T05:49:37.559Z,29.80
2018-12-14T05:52:08.616Z,26.57
2018-12-14T05:54:39.590Z,27.40
2018-12-14T05:57:09.971Z,29.53
2018-12-14T05:59:40.468Z,29.20
2018-12-14T06:02:11.946Z,28.03
2018-12-14T06:04:44.913Z,29.00
2018-12-14T06:07:15.855Z,28.23
2018-12-14T06:09:46.812Z,27.57
2018-12-14T06:12:20.511Z,26.63
2018-12-14T06:14:52.658Z,27.47
2018-12-14T06:17:25.056Z,26.83
2018-12-14T06:19:56.783Z,26.27
2018-12-14T06:22:30.619Z,27.30
2018-12-14T06:25:03.075Z,29.47
2018-12-14T06:27:33.771Z,28.90
2018-12-14T06:30:05.879Z,27.90
2018-12-14T06:32:38.280Z,27.53
2018-12-14T06:35:08.991Z,27.70
2018-12-14T06:37:38.962Z,28.13
2018-12-14T06:40:10.618Z,28.30
2018-12-14T06:42:40.131Z,27.83
2018-12-14T06:45:10.458Z,29.83
2018-12-14T06:47:42.970Z,28.07
2018-12-14T06:50:14.796Z,30.40
2018-12-14T06:52:46.102Z,30.40
2018-12-14T06:55:15.979Z,29.87
2018-12-14T06:57:46.655Z,29.93
2018-12-14T07:00:18.463Z,31.63
2018-12-14T07:02:50.294Z,28.83
2018-12-14T07:05:21.585Z,30.27
2018-12-14T07:07:53.611Z,28.73
2018-12-14T07:10:25.728Z,29.00
2018-12-14T07:12:58.267Z,27.50
2018-12-14T07:15:30.085Z,28.63
2018-12-14T07:18:00.660Z,27.80
2018-12-14T07:20:31.629Z,31.10
2018-12-14T07:23:02.043Z,30.70
2018-12-14T07:25:32.337Z,29.90
2018-12-14T07:28:03.129Z,29.60
2018-12-14T07:30:34.311Z,29.83
2018-12-14T07:33:06.229Z,29.30
2018-12-14T07:35:42.312Z,29.10
2018-12-14T07:38:14.986Z,28.70
2018-12-14T07:40:46.227Z,30.70
2018-12-14T07:43:17.816Z,32.23
2018-12-14T07:45:49.456Z,33.80
2018-12-14T07:48:21.308Z,33.97
2018-12-14T07:50:53.560Z,34.90
2018-12-14T07:53:25.385Z,35.57
2018-12-14T07:55:55.806Z,34.10
2018-12-14T07:58:26.153Z,36.03
2018-12-14T08:00:57.118Z,34.60
2018-12-14T08:03:27.623Z,34.00
2018-12-14T08:05:58.798Z,36.40
2018-12-14T08:08:29.320Z,33.13
2018-12-14T08:10:59.826Z,35.00
2018-12-14T08:13:34.793Z,35.63
2018-12-14T08:16:08.361Z,37.70
2018-12-14T08:18:38.205Z,36.43
2018-12-14T08:21:10.689Z,34.90
2018-12-14T08:23:43.002Z,34.27
2018-12-14T08:26:12.929Z,37.37
2018-12-14T08:28:45.351Z,35.03
2018-12-14T08:31:15.381Z,33.70
2018-12-14T08:33:46.512Z,34.50
2018-12-14T08:36:16.595Z,34.97
2018-12-14T08:38:46.999Z,34.73
2018-12-14T08:41:23.980Z,34.37
2018-12-14T08:43:55.826Z,32.67
2018-12-14T08:46:25.765Z,33.50
2018-12-14T08:48:55.607Z,33.67
2018-12-14T08:51:26.794Z,34.10
2018-12-14T08:53:57.294Z,36.07
2018-12-14T08:56:27.961Z,38.63
2018-12-14T08:58:58.321Z,36.70
2018-12-14T09:01:29.168Z,36.70
2018-12-14T09:03:59.793Z,36.87
2018-12-14T09:06:30.750Z,33.83
2018-12-14T09:09:08.898Z,32.30
2018-12-14T09:11:40.639Z,33.20
2018-12-14T09:14:12.328Z,32.37
2018-12-14T09:16:46.098Z,31.17
2018-12-14T09:19:16.386Z,33.67
2018-12-14T09:21:46.586Z,30.90
2018-12-14T09:24:17.681Z,33.20
2018-12-14T09:26:51.118Z,32.90
2018-12-14T09:29:21.614Z,31.40
2018-12-14T09:31:52.721Z,34.13
2018-12-14T09:34:23.640Z,31.60
2018-12-14T09:36:54.193Z,35.00
2018-12-14T09:39:24.542Z,33.20
2018-12-14T09:41:55.964Z,33.40
2018-12-14T09:44:26.810Z,30.03
2018-12-14T09:46:57.579Z,34.70
2018-12-14T09:49:28.147Z,39.00
2018-12-14T09:51:58.919Z,41.83
2018-12-14T09:54:28.829Z,36.83
2018-12-14T09:57:00.631Z,32.03
2018-12-14T09:59:30.443Z,32.33
2018-12-14T10:02:01.203Z,31.00
2018-12-14T10:04:31.885Z,31.53
2018-12-14T10:07:01.848Z,33.13
2018-12-14T10:09:31.706Z,32.63
2018-12-14T10:12:03.568Z,28.87
2018-12-14T10:14:33.961Z,31.30
2018-12-14T10:17:04.882Z,30.37
2018-12-14T10:19:36.108Z,30.70
2018-12-14T10:22:06.805Z,26.27
2018-12-14T10:24:37.369Z,26.73
2018-12-14T10:27:08.060Z,28.93
2018-12-14T10:29:38.677Z,26.33
2018-12-14T10:32:09.380Z,27.57
2018-12-14T10:34:39.089Z,27.73
2018-12-14T10:37:10.860Z,26.70
2018-12-14T10:39:41.190Z,27.43
2018-12-14T10:42:11.961Z,29.30
2018-12-14T10:44:43.057Z,30.33
2018-12-14T10:47:14.209Z,29.80
2018-12-14T10:49:48.863Z,28.60
2018-12-14T10:52:23.236Z,29.27
2018-12-14T10:54:53.087Z,28.87
2018-12-14T10:57:23.160Z,30.20
2018-12-14T10:59:52.913Z,29.90
2018-12-14T11:02:25.159Z,29.90
2018-12-14T11:04:57.040Z,29.70
2018-12-14T11:07:29.187Z,31.67
2018-12-14T11:10:01.552Z,27.77
2018-12-14T11:12:32.653Z,29.57
2018-12-14T11:15:04.061Z,32.57
2018-12-14T11:17:36.444Z,30.77
2018-12-14T11:20:09.166Z,32.20
2018-12-14T11:22:41.718Z,32.83
2018-12-14T11:25:14.320Z,30.77
2018-12-14T11:27:45.904Z,31.00
2018-12-14T11:30:16.153Z,33.17
2018-12-14T11:32:46.410Z,30.20
2018-12-14T11:35:17.281Z,31.70
2018-12-14T11:37:47.349Z,34.13
2018-12-14T11:40:19.899Z,35.80
2018-12-14T11:42:50.411Z,31.37
2018-12-14T11:45:21.499Z,33.37
2018-12-14T11:47:53.506Z,32.87
2018-12-14T11:50:31.360Z,31.40
2018-12-14T11:53:02.324Z,31.00
2018-12-14T11:55:33.029Z,28.60
2018-12-14T11:58:04.479Z,30.33
2018-12-14T12:00:34.094Z,30.10
2018-12-14T12:03:04.867Z,31.90
2018-12-14T12:05:35.418Z,29.80
2018-12-14T12:08:06.079Z,27.43
2018-12-14T12:10:36.381Z,30.13
2018-12-14T12:13:07.200Z,30.00
2018-12-14T12:15:37.604Z,29.13
2018-12-14T12:18:08.431Z,26.50
2018-12-14T12:20:38.955Z,27.50
2018-12-14T12:23:09.346Z,26.87
2018-12-14T12:25:40.712Z,27.37
2018-12-14T12:28:11.127Z,29.77
2018-12-14T12:30:41.512Z,29.40
2018-12-14T12:33:12.416Z,29.10
2018-12-14T12:35:43.174Z,30.37
2018-12-14T12:38:14.111Z,29.47
2018-12-14T12:40:44.584Z,30.60
2018-12-14T12:43:15.480Z,30.30
2018-12-14T12:45:46.115Z,30.37
2018-12-14T12:48:16.609Z,32.30
2018-12-14T12:50:46.979Z,29.80
2018-12-14T12:53:20.039Z,30.77
2018-12-14T12:55:53.171Z,30.67
2018-12-14T12:58:26.964Z,31.77
2018-12-14T13:01:00.269Z,29.23
2018-12-14T13:03:31.923Z,28.33
2018-12-14T13:06:03.884Z,28.17
2018-12-14T13:08:34.700Z,27.00
2018-12-14T13:11:04.857Z,25.10
2018-12-14T13:13:35.704Z,24.80
2018-12-14T13:16:06.648Z,26.20
2018-12-14T13:18:38.745Z,25.93
2018-12-14T13:21:10.901Z,25.00
2018-12-14T13:23:40.955Z,25.53
2018-12-14T13:26:12.103Z,25.60
2018-12-14T13:28:42.517Z,25.43
2018-12-14T13:31:12.997Z,25.80
2018-12-14T13:33:43.747Z,24.70
2018-12-14T13:36:13.789Z,24.67
2018-12-14T13:38:45.670Z,24.13
2018-12-14T13:41:15.525Z,24.50
2018-12-14T13:43:45.877Z,25.83
2018-12-14T13:46:16.001Z,24.60
2018-12-14T13:48:47.115Z,24.10
2018-12-14T13:51:19.445Z,24.07
2018-12-14T13:53:50.011Z,24.13
2018-12-14T13:56:24.713Z,24.30
2018-12-14T13:58:57.185Z,22.90
2018-12-14T14:01:28.237Z,23.60
2018-12-14T14:03:57.988Z,24.87
2018-12-14T14:06:29.349Z,25.60
2018-12-14T14:08:59.916Z,25.73
2018-12-14T14:11:29.871Z,25.77
2018-12-14T14:14:01.100Z,25.07
2018-12-14T14:16:30.808Z,24.63
2018-12-14T14:19:01.886Z,26.00
2018-12-14T14:21:32.468Z,24.90
2018-12-14T14:24:03.585Z,24.40
2018-12-14T14:26:36.010Z,27.63
2018-12-14T14:29:07.100Z,28.13
2018-12-14T14:31:37.949Z,28.37
2018-12-14T14:34:09.023Z,29.30
2018-12-14T14:36:38.976Z,27.43
2018-12-14T14:39:09.407Z,28.30
2018-12-14T14:41:40.880Z,30.73
2018-12-14T14:44:14.303Z,28.47
2018-12-14T14:46:45.154Z,28.87
2018-12-14T14:49:14.992Z,28.73
2018-12-14T14:51:45.408Z,28.97
2018-12-14T14:54:16.429Z,31.33
2018-12-14T14:56:46.773Z,29.03
2018-12-14T14:59:21.325Z,32.07
2018-12-14T15:01:51.422Z,30.57
2018-12-14T15:04:27.743Z,28.57
2018-12-14T15:06:59.344Z,28.73
2018-12-14T15:09:35.563Z,29.20
2018-12-14T15:12:06.291Z,29.60
2018-12-14T15:14:37.176Z,28.30
2018-12-14T15:17:08.966Z,30.10
2018-12-14T15:19:38.922Z,27.97
2018-12-14T15:22:09.481Z,28.00
2018-12-14T15:24:41.032Z,28.60
2018-12-14T15:27:13.709Z,26.47
2018-12-14T15:29:45.167Z,27.17
2018-12-14T15:32:15.843Z,27.00
2018-12-14T15:34:45.684Z,28.30
2018-12-14T15:37:16.650Z,27.83
2018-12-14T15:39:51.123Z,27.80
2018-12-14T15:42:24.538Z,27.13
2018-12-14T15:44:54.868Z,26.43
2018-12-14T15:47:28.344Z,27.80
2018-12-14T15:49:58.332Z,25.83
2018-12-14T15:52:30.027Z,28.10
2018-12-14T15:55:00.202Z,27.30
2018-12-14T15:57:30.891Z,27.67
2018-12-14T16:00:02.369Z,27.60
2018-12-14T16:02:33.457Z,28.27
2018-12-14T16:05:06.356Z,29.37
2018-12-14T16:07:36.471Z,27.67
2018-12-14T16:10:07.563Z,29.07
2018-12-14T16:12:39.366Z,28.20
2018-12-14T16:15:10.379Z,29.53
2018-12-14T16:17:40.644Z,30.80
2018-12-14T16:20:11.411Z,28.63
2018-12-14T16:22:41.491Z,29.20
2018-12-14T16:25:11.486Z,29.77
2018-12-14T16:27:42.643Z,30.30
2018-12-14T16:30:12.552Z,30.03
2018-12-14T16:32:44.139Z,29.20
2018-12-14T16:35:13.856Z,31.53
2018-12-14T16:37:43.780Z,28.70
2018-12-14T16:40:14.509Z,31.50
2018-12-14T16:42:44.045Z,32.50
2018-12-14T16:45:26.293Z,32.07
2018-12-14T16:47:52.139Z,32.20
2018-12-14T16:50:22.383Z,30.97
2018-12-14T16:52:51.913Z,30.20
2018-12-14T16:55:22.623Z,30.30
2018-12-14T16:57:57.251Z,31.73
2018-12-14T17:00:26.791Z,30.90
2018-12-14T17:02:57.337Z,32.83
2018-12-14T17:05:26.970Z,33.60
2018-12-14T17:07:57.241Z,32.70
2018-12-14T17:10:26.836Z,33.40
2018-12-14T17:12:57.317Z,33.13
2018-12-14T17:15:33.014Z,33.67
2018-12-14T17:17:58.557Z,34.53
2018-12-14T17:20:28.907Z,33.87
2018-12-14T17:22:58.529Z,36.17
2018-12-14T17:25:32.320Z,34.13
2018-12-14T17:28:01.794Z,33.93
2018-12-14T17:30:31.703Z,42.30
2018-12-14T17:33:01.868Z,36.50
2018-12-14T17:35:32.168Z,36.50
2018-12-14T17:38:02.886Z,38.17
2018-12-14T17:40:33.081Z,38.20
2018-12-14T17:43:03.357Z,33.37
2018-12-14T17:45:32.921Z,33.67
2018-12-14T17:48:02.557Z,35.87
2018-12-14T17:50:32.087Z,32.00
2018-12-14T17:53:02.097Z,32.37
2018-12-14T17:55:31.683Z,36.37
2018-12-14T17:58:01.727Z,33.07
2018-12-14T18:00:35.638Z,29.53
2018-12-14T18:03:05.919Z,27.47
2018-12-14T18:05:39.832Z,28.77
2018-12-14T18:08:10.056Z,30.60
2018-12-14T18:10:40.373Z,32.33
2018-12-14T18:13:10.914Z,30.67
2018-12-14T18:15:46.302Z,29.67
2018-12-14T18:18:13.119Z,33.40
2018-12-14T18:20:42.766Z,31.40
2018-12-14T18:23:12.669Z,33.73
2018-12-14T18:25:42.970Z,31.50
2018-12-14T18:28:13.495Z,32.00
2018-12-14T18:30:43.313Z,30.30
2018-12-14T18:33:12.959Z,30.97
2018-12-14T18:35:43.028Z,31.53
2018-12-14T18:38:14.943Z,34.13
2018-12-14T18:40:44.785Z,34.53
2018-12-14T18:43:14.713Z,30.67
2018-12-14T18:45:45.191Z,32.40
2018-12-14T18:48:19.287Z,31.87
2018-12-14T18:50:48.860Z,32.27
2018-12-14T18:53:18.372Z,30.33
2018-12-14T18:55:48.415Z,34.30
2018-12-14T18:58:18.021Z,34.43
2018-12-14T19:00:48.799Z,34.03
2018-12-14T19:03:18.947Z,33.30
2018-12-14T19:05:48.537Z,33.30
2018-12-14T19:08:18.496Z,35.10
2018-12-14T19:10:48.072Z,36.63
2018-12-14T19:13:17.744Z,34.13
2018-12-14T19:15:48.070Z,34.40
2018-12-14T19:18:18.306Z,31.40
2018-12-14T19:20:48.453Z,33.17
2018-12-14T19:23:20.010Z,31.10
2018-12-14T19:25:50.825Z,34.17
2018-12-14T19:28:22.469Z,38.27
2018-12-14T19:30:56.629Z,37.10
2018-12-14T19:33:26.231Z,38.27
2018-12-14T19:35:56.081Z,38.60
2018-12-14T19:38:25.612Z,40.23
2018-12-14T19:40:55.209Z,38.20
2018-12-14T19:43:24.897Z,37.93
2018-12-14T19:45:55.262Z,38.37
2018-12-14T19:48:31.799Z,36.23
2018-12-14T19:51:02.177Z,35.97
2018-12-14T19:53:32.292Z,36.57
2018-12-14T19:56:01.858Z,38.10
2018-12-14T19:58:31.899Z,37.40
2018-12-14T20:01:01.939Z,40.67
2018-12-14T20:03:32.963Z,36.97
2018-12-14T20:06:03.452Z,38.70
2018-12-14T20:08:33.030Z,40.50
2018-12-14T20:11:02.633Z,39.90
2018-12-14T20:13:32.417Z,40.37
2018-12-14T20:16:02.513Z,41.70
2018-12-14T20:18:32.266Z,39.40
2018-12-14T20:21:01.899Z,42.13
2018-12-14T20:23:31.634Z,40.20
2018-12-14T20:26:01.122Z,38.70
2018-12-14T20:28:30.921Z,38.67
2018-12-14T20:31:00.972Z,40.83
2018-12-14T20:33:31.546Z,40.30
2018-12-14T20:36:01.802Z,39.63
2018-12-14T20:38:31.326Z,41.60
2018-12-14T20:41:01.746Z,40.93
2018-12-14T20:43:31.335Z,40.07
2018-12-14T20:46:04.867Z,41.40
2018-12-14T20:48:36.536Z,39.53
2018-12-14T20:51:07.304Z,37.83
2018-12-14T20:53:38.731Z,41.00
2018-12-14T20:56:08.644Z,38.53
2018-12-14T20:58:38.590Z,37.77
2018-12-14T21:01:08.493Z,42.30
2018-12-14T21:03:38.795Z,42.30
2018-12-14T21:06:10.362Z,39.23
2018-12-14T21:08:41.405Z,41.70
2018-12-14T21:11:17.249Z,39.00
2018-12-14T21:13:47.071Z,42.27
2018-12-14T21:16:18.676Z,38.93
2018-12-14T21:18:49.257Z,44.13
2018-12-14T21:21:23.674Z,42.27
2018-12-14T21:23:57.468Z,42.63
2018-12-14T21:26:27.125Z,39.87
2018-12-14T21:28:58.578Z,41.40
2018-12-14T21:31:28.619Z,40.90
2018-12-14T21:34:00.778Z,42.53
2018-12-14T21:36:32.851Z,40.37
2018-12-14T21:39:04.927Z,42.77
2018-12-14T21:41:34.949Z,41.90
2018-12-14T21:44:04.528Z,39.47
2018-12-14T21:46:34.325Z,42.40
2018-12-14T21:49:05.612Z,40.70
2018-12-14T21:51:36.016Z,40.37
2018-12-14T21:54:06.373Z,42.70
2018-12-14T21:56:36.003Z,50.90
2018-12-14T21:59:07.273Z,41.33
2018-12-14T22:01:37.252Z,41.40
2018-12-14T22:04:06.934Z,43.37
2018-12-14T22:06:36.971Z,41.37
2018-12-14T22:09:09.670Z,41.33
2018-12-14T22:11:44.276Z,43.67
2018-12-14T22:14:14.504Z,43.67
2018-12-14T22:16:44.876Z,42.07
2018-12-14T22:19:14.819Z,41.93
2018-12-14T22:21:44.633Z,42.97
2018-12-14T22:24:14.307Z,43.47
2018-12-14T22:26:44.691Z,44.17
2018-12-14T22:29:14.411Z,40.97
2018-12-14T22:31:43.965Z,41.80
2018-12-14T22:34:18.678Z,41.87
2018-12-14T22:36:48.511Z,45.50
2018-12-14T22:39:21.647Z,44.17
2018-12-14T22:41:51.259Z,40.93
2018-12-14T22:44:22.442Z,41.00
2018-12-14T22:46:52.425Z,41.53
2018-12-14T22:49:23.025Z,41.63
2018-12-14T22:51:53.254Z,44.40
2018-12-14T22:54:27.153Z,41.23
2018-12-14T22:56:57.021Z,42.70
2018-12-14T22:59:26.891Z,41.10
2018-12-14T23:01:56.478Z,42.57
2018-12-14T23:04:27.072Z,41.30
2018-12-14T23:07:04.184Z,43.00
2018-12-14T23:09:38.142Z,40.83
2018-12-14T23:12:16.199Z,38.97
2018-12-14T23:14:47.642Z,37.97
2018-12-14T23:19:56.400Z,40.70
2018-12-14T23:22:25.951Z,42.00
2018-12-14T23:24:56.978Z,39.43
2018-12-14T23:27:26.608Z,38.73
2018-12-14T23:29:57.740Z,43.80
2018-12-14T23:32:28.143Z,41.90
2018-12-14T23:34:57.767Z,41.07
2018-12-14T23:37:27.315Z,40.80
2018-12-14T23:39:57.209Z,43.33
2018-12-14T23:42:27.593Z,43.53
2018-12-14T23:44:57.218Z,41.43
2018-12-14T23:47:26.906Z,41.80
2018-12-14T23:49:56.471Z,40.13
2018-12-14T23:52:29.696Z,41.50
2018-12-14T23:54:59.663Z,38.80
2018-12-14T23:57:29.383Z,40.00
